sensor_id;sensor_type;location;lat;lon;timestamp;P1;durP1;ratioP1;P2;durP2;ratioP2
54005;SDS011;39919;38.160;-122.260;2023-05-23T00:01:58;20.30;;;3.92;;
54005;SDS011;39919;38.160;-122.260;2023-05-23T00:04:27;20.27;;;4.93;;
54005;SDS011;39919;38.160;-122.260;2023-05-23T00:06:56;29.55;;;5.15;;
54005;SDS011;39919;38.160;-122.260;2023-05-23T00:09:25;26.35;;;5.03;;
54005;SDS011;39919;38.160;-122.260;2023-05-23T00:11:57;24.15;;;4.68;;
54005;SDS011;39919;38.160;-122.260;2023-05-23T00:14:26;24.08;;;4.65;;
54005;SDS011;39919;38.160;-122.260;2023-05-23T00:17:00;23.10;;;4.60;;
54005;SDS011;39919;38.160;-122.260;2023-05-23T00:19:32;26.38;;;3.97;;
54005;SDS011;39919;38.160;-122.260;2023-05-23T00:22:02;18.63;;;3.72;;
54005;SDS011;39919;38.160;-122.260;2023-05-23T00:24:31;23.35;;;4.18;;
54005;SDS011;39919;38.160;-122.260;2023-05-23T00:27:03;18.52;;;3.53;;
54005;SDS011;39919;38.160;-122.260;2023-05-23T00:29:32;15.85;;;3.08;;
54005;SDS011;39919;38.160;-122.260;2023-05-23T00:32:04;19.48;;;4.00;;
54005;SDS011;39919;38.160;-122.260;2023-05-23T00:34:42;14.63;;;3.17;;
54005;SDS011;39919;38.160;-122.260;2023-05-23T00:37:11;16.83;;;4.05;;
54005;SDS011;39919;38.160;-122.260;2023-05-23T00:39:41;20.75;;;3.83;;
54005;SDS011;39919;38.160;-122.260;2023-05-23T00:42:10;19.83;;;3.88;;
54005;SDS011;39919;38.160;-122.260;2023-05-23T00:44:40;19.38;;;3.40;;
54005;SDS011;39919;38.160;-122.260;2023-05-23T00:47:11;18.48;;;4.20;;
54005;SDS011;39919;38.160;-122.260;2023-05-23T00:49:42;16.90;;;3.20;;
54005;SDS011;39919;38.160;-122.260;2023-05-23T00:52:13;22.88;;;3.95;;
54005;SDS011;39919;38.160;-122.260;2023-05-23T00:55:08;25.88;;;5.78;;
54005;SDS011;39919;38.160;-122.260;2023-05-23T00:57:38;32.70;;;4.93;;
54005;SDS011;39919;38.160;-122.260;2023-05-23T01:00:20;21.73;;;4.38;;
54005;SDS011;39919;38.160;-122.260;2023-05-23T01:02:52;23.95;;;4.65;;
54005;SDS011;39919;38.160;-122.260;2023-05-23T01:05:30;25.38;;;4.10;;
54005;SDS011;39919;38.160;-122.260;2023-05-23T01:07:59;20.80;;;3.63;;
54005;SDS011;39919;38.160;-122.260;2023-05-23T01:10:36;20.85;;;4.25;;
54005;SDS011;39919;38.160;-122.260;2023-05-23T01:13:08;35.08;;;6.15;;
54005;SDS011;39919;38.160;-122.260;2023-05-23T01:15:48;24.63;;;4.63;;
54005;SDS011;39919;38.160;-122.260;2023-05-23T01:18:35;21.17;;;4.40;;
54005;SDS011;39919;38.160;-122.260;2023-05-23T01:21:08;27.27;;;5.35;;
54005;SDS011;39919;38.160;-122.260;2023-05-23T01:27:08;28.08;;;5.63;;
54005;SDS011;39919;38.160;-122.260;2023-05-23T01:29:50;21.52;;;4.30;;
54005;SDS011;39919;38.160;-122.260;2023-05-23T01:32:30;23.48;;;4.93;;
54005;SDS011;39919;38.160;-122.260;2023-05-23T01:35:09;27.77;;;4.13;;
54005;SDS011;39919;38.160;-122.260;2023-05-23T01:37:40;24.25;;;5.13;;
54005;SDS011;39919;38.160;-122.260;2023-05-23T01:40:18;25.35;;;4.88;;
54005;SDS011;39919;38.160;-122.260;2023-05-23T01:42:48;29.90;;;4.95;;
54005;SDS011;39919;38.160;-122.260;2023-05-23T01:45:28;26.15;;;4.53;;
54005;SDS011;39919;38.160;-122.260;2023-05-23T01:48:01;28.15;;;5.80;;
54005;SDS011;39919;38.160;-122.260;2023-05-23T01:50:35;31.63;;;5.68;;
54005;SDS011;39919;38.160;-122.260;2023-05-23T01:53:11;28.15;;;5.28;;
54005;SDS011;39919;38.160;-122.260;2023-05-23T01:55:42;33.33;;;5.85;;
54005;SDS011;39919;38.160;-122.260;2023-05-23T01:58:12;32.08;;;5.68;;
54005;SDS011;39919;38.160;-122.260;2023-05-23T02:00:43;25.88;;;6.15;;
54005;SDS011;39919;38.160;-122.260;2023-05-23T02:03:12;29.83;;;5.50;;
54005;SDS011;39919;38.160;-122.260;2023-05-23T02:05:42;34.22;;;6.72;;
54005;SDS011;39919;38.160;-122.260;2023-05-23T02:08:15;35.88;;;5.78;;
54005;SDS011;39919;38.160;-122.260;2023-05-23T02:10:52;31.30;;;5.97;;
54005;SDS011;39919;38.160;-122.260;2023-05-23T02:13:21;31.42;;;5.72;;
54005;SDS011;39919;38.160;-122.260;2023-05-23T02:18:56;30.88;;;6.07;;
54005;SDS011;39919;38.160;-122.260;2023-05-23T02:21:34;29.38;;;6.05;;
54005;SDS011;39919;38.160;-122.260;2023-05-23T02:24:08;27.02;;;6.60;;
54005;SDS011;39919;38.160;-122.260;2023-05-23T02:26:45;29.25;;;5.45;;
54005;SDS011;39919;38.160;-122.260;2023-05-23T02:29:21;30.42;;;6.13;;
54005;SDS011;39919;38.160;-122.260;2023-05-23T02:31:56;34.63;;;6.13;;
54005;SDS011;39919;38.160;-122.260;2023-05-23T02:34:35;32.90;;;6.70;;
54005;SDS011;39919;38.160;-122.260;2023-05-23T02:37:05;26.75;;;5.40;;
54005;SDS011;39919;38.160;-122.260;2023-05-23T02:39:34;35.40;;;6.32;;
54005;SDS011;39919;38.160;-122.260;2023-05-23T02:42:04;37.78;;;6.97;;
54005;SDS011;39919;38.160;-122.260;2023-05-23T02:44:33;34.95;;;6.45;;
54005;SDS011;39919;38.160;-122.260;2023-05-23T02:47:08;28.75;;;5.95;;
54005;SDS011;39919;38.160;-122.260;2023-05-23T02:49:37;38.65;;;6.65;;
54005;SDS011;39919;38.160;-122.260;2023-05-23T02:52:06;32.13;;;5.75;;
54005;SDS011;39919;38.160;-122.260;2023-05-23T02:54:35;30.58;;;6.78;;
54005;SDS011;39919;38.160;-122.260;2023-05-23T02:57:05;37.38;;;6.75;;
54005;SDS011;39919;38.160;-122.260;2023-05-23T02:59:35;37.55;;;6.43;;
54005;SDS011;39919;38.160;-122.260;2023-05-23T03:02:06;45.58;;;6.55;;
54005;SDS011;39919;38.160;-122.260;2023-05-23T03:04:39;41.28;;;6.40;;
54005;SDS011;39919;38.160;-122.260;2023-05-23T03:07:14;46.38;;;7.05;;
54005;SDS011;39919;38.160;-122.260;2023-05-23T03:36:08;46.85;;;8.45;;
54005;SDS011;39919;38.160;-122.260;2023-05-23T03:39:45;46.28;;;6.60;;
54005;SDS011;39919;38.160;-122.260;2023-05-23T04:02:14;50.58;;;7.32;;
54005;SDS011;39919;38.160;-122.260;2023-05-23T04:05:11;41.47;;;7.90;;
54005;SDS011;39919;38.160;-122.260;2023-05-23T04:08:19;32.63;;;7.15;;
54005;SDS011;39919;38.160;-122.260;2023-05-23T04:10:49;40.58;;;8.27;;
54005;SDS011;39919;38.160;-122.260;2023-05-23T04:13:18;42.95;;;8.32;;
54005;SDS011;39919;38.160;-122.260;2023-05-23T04:15:51;35.63;;;6.70;;
54005;SDS011;39919;38.160;-122.260;2023-05-23T04:18:21;38.10;;;7.05;;
54005;SDS011;39919;38.160;-122.260;2023-05-23T04:20:51;47.42;;;7.50;;
54005;SDS011;39919;38.160;-122.260;2023-05-23T04:23:20;45.00;;;7.55;;
54005;SDS011;39919;38.160;-122.260;2023-05-23T04:25:49;53.72;;;9.93;;
54005;SDS011;39919;38.160;-122.260;2023-05-23T04:28:19;40.33;;;7.35;;
54005;SDS011;39919;38.160;-122.260;2023-05-23T04:30:48;54.00;;;8.35;;
54005;SDS011;39919;38.160;-122.260;2023-05-23T04:33:22;50.75;;;9.38;;
54005;SDS011;39919;38.160;-122.260;2023-05-23T04:35:55;54.63;;;8.52;;
54005;SDS011;39919;38.160;-122.260;2023-05-23T04:38:24;44.80;;;9.48;;
54005;SDS011;39919;38.160;-122.260;2023-05-23T04:40:53;49.58;;;7.85;;
54005;SDS011;39919;38.160;-122.260;2023-05-23T04:43:24;57.83;;;9.93;;
54005;SDS011;39919;38.160;-122.260;2023-05-23T04:45:56;49.15;;;8.00;;
54005;SDS011;39919;38.160;-122.260;2023-05-23T04:48:25;53.25;;;8.60;;
54005;SDS011;39919;38.160;-122.260;2023-05-23T04:50:54;43.60;;;7.53;;
54005;SDS011;39919;38.160;-122.260;2023-05-23T04:53:26;47.83;;;8.20;;
54005;SDS011;39919;38.160;-122.260;2023-05-23T04:55:56;60.25;;;10.60;;
54005;SDS011;39919;38.160;-122.260;2023-05-23T04:58:27;59.03;;;8.95;;
54005;SDS011;39919;38.160;-122.260;2023-05-23T05:00:59;55.72;;;8.50;;
54005;SDS011;39919;38.160;-122.260;2023-05-23T05:03:28;51.95;;;9.73;;
54005;SDS011;39919;38.160;-122.260;2023-05-23T05:05:58;54.60;;;9.65;;
54005;SDS011;39919;38.160;-122.260;2023-05-23T05:08:28;50.88;;;8.75;;
54005;SDS011;39919;38.160;-122.260;2023-05-23T05:10:59;61.97;;;9.88;;
54005;SDS011;39919;38.160;-122.260;2023-05-23T05:13:36;58.28;;;10.48;;
54005;SDS011;39919;38.160;-122.260;2023-05-23T05:16:07;67.15;;;10.27;;
54005;SDS011;39919;38.160;-122.260;2023-05-23T05:18:37;53.47;;;9.90;;
54005;SDS011;39919;38.160;-122.260;2023-05-23T05:21:07;53.63;;;8.13;;
54005;SDS011;39919;38.160;-122.260;2023-05-23T05:23:36;67.43;;;9.98;;
54005;SDS011;39919;38.160;-122.260;2023-05-23T05:26:08;55.58;;;9.70;;
54005;SDS011;39919;38.160;-122.260;2023-05-23T05:28:37;39.75;;;7.95;;
54005;SDS011;39919;38.160;-122.260;2023-05-23T05:31:08;46.45;;;7.97;;
54005;SDS011;39919;38.160;-122.260;2023-05-23T05:33:42;48.55;;;9.20;;
54005;SDS011;39919;38.160;-122.260;2023-05-23T05:36:11;52.58;;;8.20;;
54005;SDS011;39919;38.160;-122.260;2023-05-23T05:38:40;59.53;;;9.52;;
54005;SDS011;39919;38.160;-122.260;2023-05-23T05:41:10;47.63;;;8.80;;
54005;SDS011;39919;38.160;-122.260;2023-05-23T05:43:39;71.60;;;12.10;;
54005;SDS011;39919;38.160;-122.260;2023-05-23T05:46:10;61.72;;;9.68;;
54005;SDS011;39919;38.160;-122.260;2023-05-23T05:48:39;60.15;;;9.25;;
54005;SDS011;39919;38.160;-122.260;2023-05-23T05:51:08;61.95;;;8.30;;
54005;SDS011;39919;38.160;-122.260;2023-05-23T05:53:39;64.63;;;9.57;;
54005;SDS011;39919;38.160;-122.260;2023-05-23T05:56:08;59.30;;;10.55;;
54005;SDS011;39919;38.160;-122.260;2023-05-23T05:58:38;58.50;;;9.45;;
54005;SDS011;39919;38.160;-122.260;2023-05-23T06:01:07;53.92;;;9.25;;
54005;SDS011;39919;38.160;-122.260;2023-05-23T06:03:39;68.63;;;10.43;;
54005;SDS011;39919;38.160;-122.260;2023-05-23T06:06:08;60.53;;;10.00;;
54005;SDS011;39919;38.160;-122.260;2023-05-23T06:08:37;72.30;;;12.10;;
54005;SDS011;39919;38.160;-122.260;2023-05-23T06:11:06;57.00;;;9.77;;
54005;SDS011;39919;38.160;-122.260;2023-05-23T06:13:36;54.97;;;9.98;;
54005;SDS011;39919;38.160;-122.260;2023-05-23T06:16:05;71.35;;;10.10;;
54005;SDS011;39919;38.160;-122.260;2023-05-23T06:18:36;56.50;;;10.10;;
54005;SDS011;39919;38.160;-122.260;2023-05-23T06:21:05;70.50;;;9.80;;
54005;SDS011;39919;38.160;-122.260;2023-05-23T06:26:18;66.35;;;10.07;;
54005;SDS011;39919;38.160;-122.260;2023-05-23T06:28:47;58.35;;;10.25;;
54005;SDS011;39919;38.160;-122.260;2023-05-23T06:31:16;59.08;;;9.43;;
54005;SDS011;39919;38.160;-122.260;2023-05-23T06:33:47;71.47;;;12.18;;
54005;SDS011;39919;38.160;-122.260;2023-05-23T06:36:19;68.38;;;10.35;;
54005;SDS011;39919;38.160;-122.260;2023-05-23T06:38:48;56.42;;;10.65;;
54005;SDS011;39919;38.160;-122.260;2023-05-23T06:41:17;60.53;;;9.63;;
54005;SDS011;39919;38.160;-122.260;2023-05-23T06:43:50;67.95;;;10.90;;
54005;SDS011;39919;38.160;-122.260;2023-05-23T06:46:19;67.88;;;10.43;;
54005;SDS011;39919;38.160;-122.260;2023-05-23T06:48:50;63.83;;;9.60;;
54005;SDS011;39919;38.160;-122.260;2023-05-23T06:51:19;70.28;;;11.40;;
54005;SDS011;39919;38.160;-122.260;2023-05-23T06:53:49;60.50;;;10.18;;
54005;SDS011;39919;38.160;-122.260;2023-05-23T06:56:18;65.82;;;10.90;;
54005;SDS011;39919;38.160;-122.260;2023-05-23T06:58:47;60.78;;;10.68;;
54005;SDS011;39919;38.160;-122.260;2023-05-23T07:01:16;72.45;;;10.30;;
54005;SDS011;39919;38.160;-122.260;2023-05-23T07:03:45;60.90;;;9.75;;
54005;SDS011;39919;38.160;-122.260;2023-05-23T07:06:16;60.13;;;9.93;;
54005;SDS011;39919;38.160;-122.260;2023-05-23T07:08:45;63.92;;;9.75;;
54005;SDS011;39919;38.160;-122.260;2023-05-23T07:11:14;65.88;;;10.88;;
54005;SDS011;39919;38.160;-122.260;2023-05-23T07:13:44;73.28;;;11.52;;
54005;SDS011;39919;38.160;-122.260;2023-05-23T07:16:13;72.40;;;11.18;;
54005;SDS011;39919;38.160;-122.260;2023-05-23T07:18:42;54.70;;;8.75;;
54005;SDS011;39919;38.160;-122.260;2023-05-23T07:21:11;66.43;;;11.80;;
54005;SDS011;39919;38.160;-122.260;2023-05-23T07:23:43;54.08;;;10.95;;
54005;SDS011;39919;38.160;-122.260;2023-05-23T07:26:13;68.20;;;11.95;;
54005;SDS011;39919;38.160;-122.260;2023-05-23T07:28:42;74.57;;;11.38;;
54005;SDS011;39919;38.160;-122.260;2023-05-23T07:31:11;65.97;;;11.57;;
54005;SDS011;39919;38.160;-122.260;2023-05-23T07:33:40;65.90;;;10.20;;
54005;SDS011;39919;38.160;-122.260;2023-05-23T07:36:10;64.65;;;11.63;;
54005;SDS011;39919;38.160;-122.260;2023-05-23T07:38:41;69.95;;;11.52;;
54005;SDS011;39919;38.160;-122.260;2023-05-23T07:41:12;67.90;;;11.90;;
54005;SDS011;39919;38.160;-122.260;2023-05-23T07:43:41;62.28;;;9.40;;
54005;SDS011;39919;38.160;-122.260;2023-05-23T07:46:13;60.63;;;10.82;;
54005;SDS011;39919;38.160;-122.260;2023-05-23T07:48:43;70.05;;;11.90;;
54005;SDS011;39919;38.160;-122.260;2023-05-23T07:51:12;60.47;;;9.75;;
54005;SDS011;39919;38.160;-122.260;2023-05-23T07:53:47;65.72;;;11.23;;
54005;SDS011;39919;38.160;-122.260;2023-05-23T07:56:16;63.13;;;10.75;;
54005;SDS011;39919;38.160;-122.260;2023-05-23T07:58:46;77.55;;;9.85;;
54005;SDS011;39919;38.160;-122.260;2023-05-23T08:01:15;64.75;;;10.10;;
54005;SDS011;39919;38.160;-122.260;2023-05-23T08:03:44;66.32;;;10.65;;
54005;SDS011;39919;38.160;-122.260;2023-05-23T08:06:14;68.75;;;11.05;;
54005;SDS011;39919;38.160;-122.260;2023-05-23T08:08:43;58.35;;;9.10;;
54005;SDS011;39919;38.160;-122.260;2023-05-23T08:11:14;63.05;;;9.77;;
54005;SDS011;39919;38.160;-122.260;2023-05-23T08:13:43;59.95;;;11.07;;
54005;SDS011;39919;38.160;-122.260;2023-05-23T08:16:12;65.47;;;11.85;;
54005;SDS011;39919;38.160;-122.260;2023-05-23T08:18:42;57.42;;;10.27;;
54005;SDS011;39919;38.160;-122.260;2023-05-23T08:21:11;62.97;;;9.90;;
54005;SDS011;39919;38.160;-122.260;2023-05-23T08:23:40;65.78;;;11.95;;
54005;SDS011;39919;38.160;-122.260;2023-05-23T08:26:09;67.03;;;9.15;;
54005;SDS011;39919;38.160;-122.260;2023-05-23T08:28:40;64.68;;;10.73;;
54005;SDS011;39919;38.160;-122.260;2023-05-23T08:31:09;66.50;;;12.50;;
54005;SDS011;39919;38.160;-122.260;2023-05-23T08:33:38;62.05;;;10.63;;
54005;SDS011;39919;38.160;-122.260;2023-05-23T08:36:09;59.00;;;10.30;;
54005;SDS011;39919;38.160;-122.260;2023-05-23T08:38:38;68.03;;;10.05;;
54005;SDS011;39919;38.160;-122.260;2023-05-23T08:41:09;60.50;;;10.88;;
54005;SDS011;39919;38.160;-122.260;2023-05-23T08:43:45;64.10;;;11.98;;
54005;SDS011;39919;38.160;-122.260;2023-05-23T08:46:14;57.53;;;9.35;;
54005;SDS011;39919;38.160;-122.260;2023-05-23T08:48:46;70.68;;;10.30;;
54005;SDS011;39919;38.160;-122.260;2023-05-23T08:51:20;65.30;;;9.18;;
54005;SDS011;39919;38.160;-122.260;2023-05-23T08:53:51;68.82;;;9.85;;
54005;SDS011;39919;38.160;-122.260;2023-05-23T08:56:23;68.40;;;10.73;;
54005;SDS011;39919;38.160;-122.260;2023-05-23T08:58:56;61.00;;;9.70;;
54005;SDS011;39919;38.160;-122.260;2023-05-23T09:01:26;63.10;;;9.65;;
54005;SDS011;39919;38.160;-122.260;2023-05-23T09:03:55;63.20;;;10.65;;
54005;SDS011;39919;38.160;-122.260;2023-05-23T09:06:29;62.40;;;10.07;;
54005;SDS011;39919;38.160;-122.260;2023-05-23T09:08:58;83.55;;;12.57;;
54005;SDS011;39919;38.160;-122.260;2023-05-23T09:11:28;63.50;;;10.98;;
54005;SDS011;39919;38.160;-122.260;2023-05-23T09:14:01;63.75;;;10.88;;
54005;SDS011;39919;38.160;-122.260;2023-05-23T09:16:32;65.47;;;11.02;;
54005;SDS011;39919;38.160;-122.260;2023-05-23T09:19:09;66.07;;;9.65;;
54005;SDS011;39919;38.160;-122.260;2023-05-23T09:21:41;68.70;;;11.32;;
54005;SDS011;39919;38.160;-122.260;2023-05-23T09:24:11;57.58;;;8.77;;
54005;SDS011;39919;38.160;-122.260;2023-05-23T09:26:40;56.75;;;8.35;;
54005;SDS011;39919;38.160;-122.260;2023-05-23T09:29:15;65.55;;;10.93;;
54005;SDS011;39919;38.160;-122.260;2023-05-23T09:31:47;68.50;;;11.05;;
54005;SDS011;39919;38.160;-122.260;2023-05-23T09:34:16;55.78;;;8.90;;
54005;SDS011;39919;38.160;-122.260;2023-05-23T09:36:46;67.35;;;10.45;;
54005;SDS011;39919;38.160;-122.260;2023-05-23T09:39:15;57.65;;;9.93;;
54005;SDS011;39919;38.160;-122.260;2023-05-23T09:41:44;62.95;;;10.60;;
54005;SDS011;39919;38.160;-122.260;2023-05-23T09:44:21;69.72;;;11.23;;
54005;SDS011;39919;38.160;-122.260;2023-05-23T09:46:50;67.03;;;10.73;;
54005;SDS011;39919;38.160;-122.260;2023-05-23T09:49:20;67.82;;;11.98;;
54005;SDS011;39919;38.160;-122.260;2023-05-23T09:51:59;62.75;;;10.93;;
54005;SDS011;39919;38.160;-122.260;2023-05-23T09:54:28;63.15;;;9.52;;
54005;SDS011;39919;38.160;-122.260;2023-05-23T09:56:57;62.25;;;9.55;;
54005;SDS011;39919;38.160;-122.260;2023-05-23T09:59:31;51.70;;;9.23;;
54005;SDS011;39919;38.160;-122.260;2023-05-23T10:02:05;59.40;;;10.27;;
54005;SDS011;39919;38.160;-122.260;2023-05-23T10:04:40;60.55;;;8.88;;
54005;SDS011;39919;38.160;-122.260;2023-05-23T10:07:12;64.15;;;11.25;;
54005;SDS011;39919;38.160;-122.260;2023-05-23T10:09:44;64.82;;;9.73;;
54005;SDS011;39919;38.160;-122.260;2023-05-23T10:15:13;51.65;;;9.35;;
54005;SDS011;39919;38.160;-122.260;2023-05-23T10:17:51;62.83;;;10.55;;
54005;SDS011;39919;38.160;-122.260;2023-05-23T10:20:29;55.83;;;10.18;;
54005;SDS011;39919;38.160;-122.260;2023-05-23T10:22:59;54.65;;;9.60;;
54005;SDS011;39919;38.160;-122.260;2023-05-23T10:25:30;62.97;;;9.45;;
54005;SDS011;39919;38.160;-122.260;2023-05-23T10:28:00;44.25;;;9.05;;
54005;SDS011;39919;38.160;-122.260;2023-05-23T10:30:33;56.65;;;9.50;;
54005;SDS011;39919;38.160;-122.260;2023-05-23T10:33:02;62.25;;;9.77;;
54005;SDS011;39919;38.160;-122.260;2023-05-23T10:35:37;57.78;;;9.70;;
54005;SDS011;39919;38.160;-122.260;2023-05-23T10:38:19;53.83;;;9.10;;
54005;SDS011;39919;38.160;-122.260;2023-05-23T10:41:01;56.05;;;9.73;;
54005;SDS011;39919;38.160;-122.260;2023-05-23T10:43:43;65.60;;;10.05;;
54005;SDS011;39919;38.160;-122.260;2023-05-23T10:46:20;59.00;;;8.70;;
54005;SDS011;39919;38.160;-122.260;2023-05-23T10:48:53;53.85;;;9.98;;
54005;SDS011;39919;38.160;-122.260;2023-05-23T10:51:23;66.75;;;10.68;;
54005;SDS011;39919;38.160;-122.260;2023-05-23T10:53:53;66.00;;;10.27;;
54005;SDS011;39919;38.160;-122.260;2023-05-23T10:56:22;62.28;;;9.13;;
54005;SDS011;39919;38.160;-122.260;2023-05-23T10:58:52;50.05;;;8.70;;
54005;SDS011;39919;38.160;-122.260;2023-05-23T11:01:23;58.30;;;8.98;;
54005;SDS011;39919;38.160;-122.260;2023-05-23T11:03:53;48.28;;;8.70;;
54005;SDS011;39919;38.160;-122.260;2023-05-23T11:06:29;53.42;;;8.85;;
54005;SDS011;39919;38.160;-122.260;2023-05-23T11:09:03;61.97;;;9.65;;
54005;SDS011;39919;38.160;-122.260;2023-05-23T11:11:52;62.17;;;9.43;;
54005;SDS011;39919;38.160;-122.260;2023-05-23T11:14:31;64.82;;;10.93;;
54005;SDS011;39919;38.160;-122.260;2023-05-23T11:17:31;62.70;;;9.85;;
54005;SDS011;39919;38.160;-122.260;2023-05-23T11:20:03;63.45;;;9.85;;
54005;SDS011;39919;38.160;-122.260;2023-05-23T11:22:37;73.05;;;12.02;;
54005;SDS011;39919;38.160;-122.260;2023-05-23T11:25:07;55.13;;;9.48;;
54005;SDS011;39919;38.160;-122.260;2023-05-23T11:27:37;61.33;;;10.27;;
54005;SDS011;39919;38.160;-122.260;2023-05-23T11:30:08;60.22;;;9.48;;
54005;SDS011;39919;38.160;-122.260;2023-05-23T11:32:40;60.50;;;10.18;;
54005;SDS011;39919;38.160;-122.260;2023-05-23T11:35:16;58.20;;;10.00;;
54005;SDS011;39919;38.160;-122.260;2023-05-23T11:37:47;56.58;;;10.70;;
54005;SDS011;39919;38.160;-122.260;2023-05-23T11:40:29;58.03;;;10.02;;
54005;SDS011;39919;38.160;-122.260;2023-05-23T11:42:59;58.33;;;9.55;;
54005;SDS011;39919;38.160;-122.260;2023-05-23T11:45:30;48.20;;;8.25;;
54005;SDS011;39919;38.160;-122.260;2023-05-23T11:48:05;67.22;;;10.52;;
54005;SDS011;39919;38.160;-122.260;2023-05-23T11:50:43;58.13;;;9.05;;
54005;SDS011;39919;38.160;-122.260;2023-05-23T11:53:14;58.70;;;9.05;;
54005;SDS011;39919;38.160;-122.260;2023-05-23T11:55:48;73.43;;;9.90;;
54005;SDS011;39919;38.160;-122.260;2023-05-23T11:58:20;56.13;;;9.57;;
54005;SDS011;39919;38.160;-122.260;2023-05-23T12:00:49;62.33;;;9.07;;
54005;SDS011;39919;38.160;-122.260;2023-05-23T12:03:20;57.70;;;9.27;;
54005;SDS011;39919;38.160;-122.260;2023-05-23T12:05:49;72.35;;;10.55;;
54005;SDS011;39919;38.160;-122.260;2023-05-23T12:08:19;63.33;;;10.35;;
54005;SDS011;39919;38.160;-122.260;2023-05-23T12:10:48;64.38;;;10.90;;
54005;SDS011;39919;38.160;-122.260;2023-05-23T12:13:23;53.92;;;10.15;;
54005;SDS011;39919;38.160;-122.260;2023-05-23T12:15:53;66.53;;;11.30;;
54005;SDS011;39919;38.160;-122.260;2023-05-23T12:18:26;58.00;;;9.63;;
54005;SDS011;39919;38.160;-122.260;2023-05-23T12:20:58;73.22;;;11.73;;
54005;SDS011;39919;38.160;-122.260;2023-05-23T12:23:30;64.75;;;9.25;;
54005;SDS011;39919;38.160;-122.260;2023-05-23T12:26:02;58.80;;;8.93;;
54005;SDS011;39919;38.160;-122.260;2023-05-23T12:28:34;54.95;;;9.27;;
54005;SDS011;39919;38.160;-122.260;2023-05-23T12:31:08;72.47;;;10.77;;
54005;SDS011;39919;38.160;-122.260;2023-05-23T12:33:40;73.18;;;11.80;;
54005;SDS011;39919;38.160;-122.260;2023-05-23T12:36:10;56.50;;;9.90;;
54005;SDS011;39919;38.160;-122.260;2023-05-23T12:38:40;62.28;;;10.05;;
54005;SDS011;39919;38.160;-122.260;2023-05-23T12:41:12;63.53;;;10.70;;
54005;SDS011;39919;38.160;-122.260;2023-05-23T12:43:48;60.35;;;9.80;;
54005;SDS011;39919;38.160;-122.260;2023-05-23T12:46:18;53.85;;;9.35;;
54005;SDS011;39919;38.160;-122.260;2023-05-23T12:48:49;56.47;;;10.38;;
54005;SDS011;39919;38.160;-122.260;2023-05-23T12:51:19;60.65;;;9.45;;
54005;SDS011;39919;38.160;-122.260;2023-05-23T12:53:51;66.72;;;9.43;;
54005;SDS011;39919;38.160;-122.260;2023-05-23T12:56:24;58.28;;;10.32;;
54005;SDS011;39919;38.160;-122.260;2023-05-23T12:58:53;51.75;;;7.90;;
54005;SDS011;39919;38.160;-122.260;2023-05-23T13:01:22;51.88;;;8.73;;
54005;SDS011;39919;38.160;-122.260;2023-05-23T13:03:53;56.67;;;9.70;;
54005;SDS011;39919;38.160;-122.260;2023-05-23T13:06:22;55.08;;;8.65;;
54005;SDS011;39919;38.160;-122.260;2023-05-23T13:08:51;49.78;;;8.80;;
54005;SDS011;39919;38.160;-122.260;2023-05-23T13:11:20;50.40;;;8.52;;
54005;SDS011;39919;38.160;-122.260;2023-05-23T13:13:50;54.05;;;9.50;;
54005;SDS011;39919;38.160;-122.260;2023-05-23T13:16:22;50.05;;;7.90;;
54005;SDS011;39919;38.160;-122.260;2023-05-23T13:18:53;54.75;;;9.85;;
54005;SDS011;39919;38.160;-122.260;2023-05-23T13:21:22;61.13;;;9.85;;
54005;SDS011;39919;38.160;-122.260;2023-05-23T13:23:52;61.60;;;10.23;;
54005;SDS011;39919;38.160;-122.260;2023-05-23T13:26:21;56.40;;;9.30;;
54005;SDS011;39919;38.160;-122.260;2023-05-23T13:28:51;56.38;;;8.75;;
54005;SDS011;39919;38.160;-122.260;2023-05-23T13:31:24;54.83;;;9.68;;
54005;SDS011;39919;38.160;-122.260;2023-05-23T13:33:55;56.60;;;8.82;;
54005;SDS011;39919;38.160;-122.260;2023-05-23T13:36:24;53.78;;;10.60;;
54005;SDS011;39919;38.160;-122.260;2023-05-23T13:38:54;60.42;;;10.25;;
54005;SDS011;39919;38.160;-122.260;2023-05-23T13:41:23;57.05;;;10.00;;
54005;SDS011;39919;38.160;-122.260;2023-05-23T13:43:52;53.45;;;8.55;;
54005;SDS011;39919;38.160;-122.260;2023-05-23T13:46:21;59.85;;;8.75;;
54005;SDS011;39919;38.160;-122.260;2023-05-23T13:48:50;48.85;;;8.55;;
54005;SDS011;39919;38.160;-122.260;2023-05-23T13:51:24;45.65;;;7.82;;
54005;SDS011;39919;38.160;-122.260;2023-05-23T13:53:53;62.85;;;7.95;;
54005;SDS011;39919;38.160;-122.260;2023-05-23T13:56:22;50.58;;;9.18;;
54005;SDS011;39919;38.160;-122.260;2023-05-23T13:58:52;55.97;;;7.97;;
54005;SDS011;39919;38.160;-122.260;2023-05-23T14:01:21;43.75;;;7.35;;
54005;SDS011;39919;38.160;-122.260;2023-05-23T14:03:50;55.35;;;7.88;;
54005;SDS011;39919;38.160;-122.260;2023-05-23T14:06:19;53.92;;;7.85;;
54005;SDS011;39919;38.160;-122.260;2023-05-23T14:08:50;51.67;;;8.73;;
54005;SDS011;39919;38.160;-122.260;2023-05-23T14:11:20;41.60;;;6.65;;
54005;SDS011;39919;38.160;-122.260;2023-05-23T14:13:50;47.47;;;8.98;;
54005;SDS011;39919;38.160;-122.260;2023-05-23T14:16:19;43.45;;;7.50;;
54005;SDS011;39919;38.160;-122.260;2023-05-23T14:18:48;42.78;;;7.80;;
54005;SDS011;39919;38.160;-122.260;2023-05-23T14:21:17;43.88;;;7.85;;
54005;SDS011;39919;38.160;-122.260;2023-05-23T14:23:47;58.83;;;9.63;;
54005;SDS011;39919;38.160;-122.260;2023-05-23T14:26:18;44.13;;;7.20;;
54005;SDS011;39919;38.160;-122.260;2023-05-23T14:28:47;46.63;;;8.38;;
54005;SDS011;39919;38.160;-122.260;2023-05-23T14:31:16;38.20;;;6.80;;
54005;SDS011;39919;38.160;-122.260;2023-05-23T14:33:46;49.72;;;7.85;;
54005;SDS011;39919;38.160;-122.260;2023-05-23T14:36:16;49.83;;;8.18;;
54005;SDS011;39919;38.160;-122.260;2023-05-23T14:38:45;49.53;;;7.82;;
54005;SDS011;39919;38.160;-122.260;2023-05-23T14:41:17;48.25;;;8.02;;
54005;SDS011;39919;38.160;-122.260;2023-05-23T14:43:47;56.25;;;7.78;;
54005;SDS011;39919;38.160;-122.260;2023-05-23T14:46:16;40.05;;;7.13;;
54005;SDS011;39919;38.160;-122.260;2023-05-23T14:48:46;47.42;;;8.02;;
54005;SDS011;39919;38.160;-122.260;2023-05-23T14:51:15;49.65;;;8.13;;
54005;SDS011;39919;38.160;-122.260;2023-05-23T14:53:44;34.50;;;6.65;;
54005;SDS011;39919;38.160;-122.260;2023-05-23T14:56:28;45.58;;;7.95;;
54005;SDS011;39919;38.160;-122.260;2023-05-23T14:58:57;37.25;;;7.00;;
54005;SDS011;39919;38.160;-122.260;2023-05-23T15:01:27;56.70;;;8.02;;
54005;SDS011;39919;38.160;-122.260;2023-05-23T15:03:56;45.42;;;7.50;;
54005;SDS011;39919;38.160;-122.260;2023-05-23T15:06:25;47.15;;;8.20;;
54005;SDS011;39919;38.160;-122.260;2023-05-23T15:08:54;45.97;;;7.97;;
54005;SDS011;39919;38.160;-122.260;2023-05-23T15:11:24;36.40;;;5.72;;
54005;SDS011;39919;38.160;-122.260;2023-05-23T15:13:55;51.28;;;7.47;;
54005;SDS011;39919;38.160;-122.260;2023-05-23T15:16:24;34.42;;;6.90;;
54005;SDS011;39919;38.160;-122.260;2023-05-23T15:18:57;42.47;;;6.82;;